createdAt,value
2022-09-15T00:09:42.339Z,54.07
2022-09-15T00:19:49.173Z,54.12
2022-09-15T00:29:55.995Z,54.09
2022-09-15T00:40:02.689Z,54.17
2022-09-15T00:50:09.771Z,54.24
2022-09-15T01:00:16.661Z,54.12
2022-09-15T01:10:23.704Z,54.06
2022-09-15T01:20:30.502Z,54.08
2022-09-15T01:30:37.597Z,54.30
2022-09-15T01:40:44.694Z,54.19
2022-09-15T01:50:51.547Z,54.14
2022-09-15T02:00:58.637Z,54.18
2022-09-15T02:11:06.033Z,54.30
2022-09-15T02:21:12.499Z,54.32
2022-09-15T02:31:19.423Z,54.33
2022-09-15T02:41:26.858Z,54.37
2022-09-15T02:51:33.908Z,54.48
2022-09-15T03:03:00.634Z,54.47
2022-09-15T03:13:06.633Z,54.60
2022-09-15T03:23:13.491Z,54.54
2022-09-15T03:33:20.442Z,54.64
2022-09-15T03:43:27.313Z,54.63
2022-09-15T03:53:34.508Z,54.49
2022-09-15T04:03:46.386Z,54.61
2022-09-15T04:13:53.661Z,54.78
2022-09-15T04:24:00.748Z,54.78
2022-09-15T04:34:07.605Z,54.80
2022-09-15T04:44:14.898Z,54.79
2022-09-15T04:54:21.619Z,54.73
2022-09-15T05:04:28.674Z,54.82
2022-09-15T05:14:35.603Z,54.77
2022-09-15T05:24:42.738Z,54.78
2022-09-15T05:34:49.854Z,54.74
2022-09-15T05:44:56.757Z,54.87
2022-09-15T05:55:03.554Z,54.88
2022-09-15T06:05:10.072Z,54.63
2022-09-15T06:15:17.001Z,54.69
2022-09-15T06:25:23.802Z,54.80
2022-09-15T06:35:30.018Z,54.83
2022-09-15T06:45:37.111Z,54.65
2022-09-15T06:55:44.001Z,54.54
2022-09-15T07:05:51.036Z,54.53
2022-09-15T07:15:58.293Z,55.83
2022-09-15T07:26:05.701Z,54.70
2022-09-15T07:36:12.712Z,54.58
2022-09-15T07:46:19.260Z,54.20
2022-09-15T07:56:25.689Z,54.00
2022-09-15T08:06:32.951Z,54.11
2022-09-15T08:16:40.153Z,53.88
2022-09-15T08:26:46.938Z,54.00
2022-09-15T08:36:54.510Z,53.99
2022-09-15T08:47:01.627Z,54.16
2022-09-15T08:57:08.792Z,54.08
2022-09-15T09:07:15.665Z,53.81
2022-09-15T09:17:22.607Z,53.43
2022-09-15T09:27:29.617Z,53.66
2022-09-15T09:37:37.152Z,53.64
2022-09-15T09:47:44.154Z,53.59
2022-09-15T09:57:51.317Z,53.32
2022-09-15T10:07:57.953Z,53.05
2022-09-15T10:18:04.687Z,52.90
2022-09-15T10:28:11.822Z,52.85
2022-09-15T10:38:18.990Z,52.99
2022-09-15T10:48:26.042Z,52.99
2022-09-15T10:58:32.848Z,52.89
2022-09-15T11:08:39.922Z,53.02
2022-09-15T11:18:46.565Z,52.52
2022-09-15T11:28:53.646Z,52.69
2022-09-15T11:39:00.283Z,52.90
2022-09-15T11:49:06.568Z,51.96
2022-09-15T11:59:13.479Z,51.96
2022-09-15T12:09:20.278Z,51.81
2022-09-15T12:19:27.360Z,51.98
2022-09-15T12:29:36.909Z,51.50
2022-09-15T12:39:46.716Z,51.28
2022-09-15T12:49:53.852Z,51.65
2022-09-15T13:00:00.262Z,52.09
2022-09-15T13:10:07.226Z,52.00
2022-09-15T13:20:15.393Z,52.12
2022-09-15T13:30:22.425Z,51.97
2022-09-15T13:40:29.175Z,52.35
2022-09-15T13:50:36.601Z,52.33
2022-09-15T14:00:43.444Z,52.17
2022-09-15T14:10:50.811Z,51.54
2022-09-15T14:20:59.162Z,51.43
2022-09-15T14:31:06.973Z,51.16
2022-09-15T14:41:13.690Z,51.76
2022-09-15T14:51:20.824Z,51.11
2022-09-15T15:01:27.498Z,50.98
2022-09-15T15:11:33.892Z,50.66
2022-09-15T15:21:40.559Z,50.76
2022-09-15T15:31:48.136Z,50.16
2022-09-15T15:41:54.867Z,50.13
2022-09-15T15:52:02.080Z,50.70
2022-09-15T16:03:27.930Z,50.45
2022-09-15T16:13:33.865Z,51.00
2022-09-15T16:23:40.653Z,50.87
2022-09-15T16:33:47.692Z,51.09
2022-09-15T16:43:54.914Z,51.33
2022-09-15T16:54:01.690Z,51.59
2022-09-15T17:04:08.546Z,51.19
2022-09-15T17:14:15.671Z,50.59
2022-09-15T17:24:22.625Z,50.66
2022-09-15T17:34:29.831Z,50.60
2022-09-15T17:44:37.783Z,50.99
2022-09-15T17:54:44.301Z,51.04
2022-09-15T18:04:51.074Z,51.00
2022-09-15T18:14:58.062Z,51.06
2022-09-15T18:25:05.321Z,51.16
2022-09-15T18:35:16.338Z,51.27
2022-09-15T18:45:24.080Z,51.06
2022-09-15T18:55:31.390Z,51.03
2022-09-15T19:05:38.279Z,51.09
2022-09-15T19:15:45.308Z,51.42
2022-09-15T19:25:52.951Z,51.15
2022-09-15T19:36:17.177Z,51.08
2022-09-15T19:46:10.680Z,51.16
2022-09-15T19:56:21.716Z,51.01
2022-09-15T20:06:32.246Z,51.90
2022-09-15T20:16:39.083Z,51.02
2022-09-15T20:26:46.152Z,50.79
2022-09-15T20:36:53.183Z,50.65
2022-09-15T20:47:00.015Z,50.76
2022-09-15T20:57:06.739Z,50.84
2022-09-15T21:07:13.780Z,50.58
2022-09-15T21:17:20.728Z,50.77
2022-09-15T21:27:26.987Z,51.24
2022-09-15T21:37:34.148Z,50.84
2022-09-15T21:47:40.857Z,51.03
2022-09-15T21:57:47.668Z,51.00
2022-09-15T22:07:54.432Z,51.27
2022-09-15T22:18:01.293Z,51.29
2022-09-15T22:28:08.275Z,51.13
2022-09-15T22:38:15.268Z,51.13
2022-09-15T22:48:22.211Z,51.19
2022-09-15T22:58:29.174Z,51.20
2022-09-15T23:08:36.198Z,51.20
2022-09-15T23:18:43.329Z,51.21
2022-09-15T23:28:50.459Z,51.28
2022-09-15T23:38:57.318Z,51.36
2022-09-15T23:49:04.413Z,51.12
2022-09-15T23:59:11.462Z,51.02
